createdAt,value
2022-09-03T00:01:43.916Z,100485.97
2022-09-03T00:04:29.083Z,100477.38
2022-09-03T00:07:03.038Z,100473.25
2022-09-03T00:09:43.857Z,100474.03
2022-09-03T00:12:19.893Z,100477.56
2022-09-03T00:15:06.009Z,100468.44
2022-09-03T00:17:47.962Z,100463.81
2022-09-03T00:20:22.017Z,100462.34
2022-09-03T00:22:55.267Z,100456.56
2022-09-03T00:25:29.845Z,100459.50
2022-09-03T00:28:00.011Z,100449.38
2022-09-03T00:30:28.084Z,100454.19
2022-09-03T00:33:10.809Z,100455.25
2022-09-03T00:36:09.331Z,100457.34
2022-09-03T00:38:37.998Z,100454.38
2022-09-03T00:41:43.023Z,100455.88
2022-09-03T00:44:30.494Z,100457.00
2022-09-03T00:47:08.512Z,100451.13
2022-09-03T00:49:37.931Z,100462.94
2022-09-03T00:52:09.691Z,100458.94
2022-09-03T00:55:01.396Z,100452.19
2022-09-03T00:58:02.126Z,100438.78
2022-09-03T01:00:29.485Z,100444.22
2022-09-03T01:03:09.280Z,100445.53
2022-09-03T01:05:48.560Z,100446.03
2022-09-03T01:08:34.165Z,100436.03
2022-09-03T01:11:35.395Z,100439.03
2022-09-03T01:14:26.412Z,100432.50
2022-09-03T01:16:59.064Z,100434.66
2022-09-03T01:19:37.894Z,100436.44
2022-09-03T01:22:27.582Z,100428.94
2022-09-03T01:24:59.324Z,100426.31
2022-09-03T01:27:46.939Z,100420.31
2022-09-03T01:30:19.726Z,100424.84
2022-09-03T01:33:02.047Z,100419.69
2022-09-03T01:35:35.193Z,100422.41
2022-09-03T01:38:35.406Z,100422.31
2022-09-03T01:41:47.335Z,100422.31
2022-09-03T01:44:13.962Z,100419.41
2022-09-03T01:46:42.565Z,100418.75
2022-09-03T01:49:34.246Z,100408.00
2022-09-03T01:52:06.096Z,100419.41
2022-09-03T01:54:58.927Z,100429.25
2022-09-03T01:57:42.022Z,100423.13
2022-09-03T02:00:20.634Z,100424.00
2022-09-03T02:02:51.578Z,100427.44
2022-09-03T02:05:27.047Z,100418.84
2022-09-03T02:07:57.047Z,100418.66
2022-09-03T02:10:38.786Z,100419.59
2022-09-03T02:13:09.941Z,100413.69
2022-09-03T02:15:43.800Z,100406.88
2022-09-03T02:18:17.307Z,100409.78
2022-09-03T02:20:45.482Z,100407.44
2022-09-03T02:23:12.282Z,100401.66
2022-09-03T02:25:44.910Z,100405.59
2022-09-03T02:28:27.981Z,100411.97
2022-09-03T02:30:55.206Z,100403.47
2022-09-03T02:33:22.162Z,100406.34
2022-09-03T02:35:49.246Z,100408.31
2022-09-03T02:38:22.569Z,100399.91
2022-09-03T02:40:49.460Z,100402.69
2022-09-03T02:43:31.096Z,100401.88
2022-09-03T02:46:04.343Z,100400.16
2022-09-03T02:48:31.490Z,100402.78
2022-09-03T02:50:58.210Z,100401.88
2022-09-03T02:53:25.299Z,100395.75
2022-09-03T02:55:52.217Z,100393.16
2022-09-03T02:58:18.977Z,100394.09
2022-09-03T03:00:45.812Z,100392.41
2022-09-03T03:03:12.534Z,100389.78
2022-09-03T03:05:49.140Z,100387.25
2022-09-03T03:08:17.230Z,100384.72
2022-09-03T03:10:45.192Z,100384.00
2022-09-03T03:13:12.670Z,100381.47
2022-09-03T03:15:39.460Z,100385.03
2022-09-03T03:18:07.738Z,100383.44
2022-09-03T03:20:34.654Z,100385.38
2022-09-03T03:23:05.835Z,100386.44
2022-09-03T03:25:33.730Z,100376.97
2022-09-03T03:28:01.211Z,100376.31
2022-09-03T03:30:28.489Z,100370.44
2022-09-03T03:32:55.860Z,100359.22
2022-09-03T03:35:22.861Z,100362.19
2022-09-03T03:37:49.849Z,100346.13
2022-09-03T03:40:17.102Z,100359.22
2022-09-03T03:42:43.945Z,100354.34
2022-09-03T03:45:10.969Z,100363.31
2022-09-03T03:47:37.789Z,100360.13
2022-09-03T03:50:05.354Z,100357.69
2022-09-03T03:52:32.454Z,100359.63
2022-09-03T03:54:59.240Z,100363.16
2022-09-03T03:57:26.035Z,100365.59
2022-09-03T03:59:52.790Z,100373.38
2022-09-03T04:02:19.613Z,100372.63
2022-09-03T04:04:46.555Z,100364.03
2022-09-03T04:07:13.485Z,100361.66
2022-09-03T04:09:40.349Z,100362.69
2022-09-03T04:12:08.828Z,100366.16
2022-09-03T04:14:35.858Z,100362.09
2022-09-03T04:17:03.281Z,100357.53
2022-09-03T04:19:30.463Z,100364.53
2022-09-03T04:21:57.437Z,100359.47
2022-09-03T04:24:24.179Z,100363.13
2022-09-03T04:26:50.953Z,100367.44
2022-09-03T04:29:18.703Z,100361.34
2022-09-03T04:32:05.383Z,100359.69
2022-09-03T04:34:32.287Z,100358.16
2022-09-03T04:36:59.329Z,100348.91
2022-09-03T04:39:26.346Z,100334.59
2022-09-03T04:41:53.215Z,100348.50
2022-09-03T04:44:20.047Z,100356.50
2022-09-03T04:46:48.383Z,100357.53
2022-09-03T04:49:15.267Z,100361.94
2022-09-03T04:51:42.357Z,100368.81
2022-09-03T04:54:10.445Z,100355.84
2022-09-03T04:56:39.485Z,100350.44
2022-09-03T04:59:08.867Z,100345.97
2022-09-03T05:01:38.011Z,100334.59
2022-09-03T05:04:06.041Z,100336.09
2022-09-03T05:06:33.951Z,100342.84
2022-09-03T05:09:01.428Z,100342.66
2022-09-03T05:11:30.062Z,100338.19
2022-09-03T05:13:58.947Z,100338.00
2022-09-03T05:16:28.444Z,100325.78
2022-09-03T05:18:59.320Z,100330.06
2022-09-03T05:21:27.026Z,100331.09
2022-09-03T05:23:54.242Z,100316.34
2022-09-03T05:26:29.362Z,100324.94
2022-09-03T05:28:59.113Z,100333.53
2022-09-03T05:31:28.616Z,100333.47
2022-09-03T05:34:00.682Z,100316.81
2022-09-03T05:36:34.896Z,100310.75
2022-09-03T05:39:02.118Z,100326.06
2022-09-03T05:41:29.304Z,100336.34
2022-09-03T05:43:59.673Z,100340.59
2022-09-03T05:46:38.539Z,100341.41
2022-09-03T05:49:06.879Z,100336.19
2022-09-03T05:51:35.867Z,100343.94
2022-09-03T05:54:03.145Z,100340.13
2022-09-03T05:56:31.831Z,100338.16
2022-09-03T05:59:01.916Z,100339.09
2022-09-03T06:01:34.502Z,100344.44
2022-09-03T06:04:04.903Z,100346.25
2022-09-03T06:06:35.139Z,100353.44
2022-09-03T06:09:23.126Z,100336.34
2022-09-03T06:11:52.485Z,100341.03
2022-09-03T06:14:20.376Z,100331.34
2022-09-03T06:16:53.193Z,100339.84
2022-09-03T06:19:20.399Z,100332.56
2022-09-03T06:21:47.856Z,100338.47
2022-09-03T06:24:26.256Z,100344.44
2022-09-03T06:26:54.688Z,100341.81
2022-09-03T06:29:22.193Z,100338.47
2022-09-03T06:31:51.058Z,100336.69
2022-09-03T06:34:18.922Z,100343.69
2022-09-03T06:36:46.361Z,100346.22
2022-09-03T06:39:13.086Z,100336.59
2022-09-03T06:41:40.242Z,100329.50
2022-09-03T06:44:11.939Z,100336.13
2022-09-03T06:46:42.850Z,100332.31
2022-09-03T06:49:11.382Z,100330.34
2022-09-03T06:51:39.250Z,100326.59
2022-09-03T06:54:11.329Z,100324.72
2022-09-03T06:56:41.005Z,100316.69
2022-09-03T06:59:13.063Z,100321.75
2022-09-03T07:01:43.987Z,100324.94
2022-09-03T07:04:13.014Z,100323.88
2022-09-03T07:06:42.788Z,100325.47
2022-09-03T07:09:11.778Z,100325.22
2022-09-03T07:11:46.926Z,100319.75
2022-09-03T07:14:15.221Z,100324.81
2022-09-03T07:16:43.167Z,100332.38
2022-09-03T07:19:10.467Z,100324.44
2022-09-03T07:21:38.019Z,100322.00
2022-09-03T07:24:06.288Z,100329.47
2022-09-03T07:26:47.189Z,100329.47
2022-09-03T07:29:16.089Z,100336.03
2022-09-03T07:31:44.168Z,100335.81
2022-09-03T07:34:12.860Z,100332.06
2022-09-03T07:36:43.123Z,100343.09
2022-09-03T07:39:13.993Z,100337.56
2022-09-03T07:41:44.249Z,100336.13
2022-09-03T07:44:11.017Z,100326.00
2022-09-03T07:46:38.625Z,100323.78
2022-09-03T07:49:06.481Z,100324.22
2022-09-03T07:51:36.021Z,100313.09
2022-09-03T07:54:08.397Z,100319.53
2022-09-03T07:56:36.068Z,100314.50
2022-09-03T07:59:04.405Z,100302.19
2022-09-03T08:01:32.945Z,100306.78
2022-09-03T08:04:01.899Z,100303.25
2022-09-03T08:06:29.846Z,100310.72
2022-09-03T08:09:04.910Z,100299.91
2022-09-03T08:11:34.859Z,100298.34
2022-09-03T08:14:06.681Z,100298.44
2022-09-03T08:16:42.477Z,100294.66
2022-09-03T08:19:09.614Z,100296.31
2022-09-03T08:21:36.572Z,100303.22
2022-09-03T08:24:03.625Z,100300.13
2022-09-03T08:26:36.335Z,100298.22
2022-09-03T08:29:04.634Z,100300.81
2022-09-03T08:31:32.597Z,100303.31
2022-09-03T08:34:03.373Z,100310.91
2022-09-03T08:36:31.748Z,100301.91
2022-09-03T08:39:04.272Z,100308.06
2022-09-03T08:42:10.679Z,100291.72
2022-09-03T08:45:01.021Z,100283.06
2022-09-03T08:47:52.203Z,100276.31
2022-09-03T08:50:42.193Z,100277.63
2022-09-03T08:53:20.731Z,100273.69
2022-09-03T08:56:21.516Z,100286.00
2022-09-03T08:58:48.405Z,100283.47
2022-09-03T09:01:43.333Z,100286.69
2022-09-03T09:04:19.015Z,100284.00
2022-09-03T09:07:01.174Z,100285.44
2022-09-03T09:09:50.771Z,100288.09
2022-09-03T09:12:20.542Z,100279.31
2022-09-03T09:14:47.210Z,100276.91
2022-09-03T09:17:32.833Z,100268.72
2022-09-03T09:20:17.468Z,100274.84
2022-09-03T09:22:50.105Z,100278.69
2022-09-03T09:25:22.713Z,100272.03
2022-09-03T09:28:03.293Z,100280.09
2022-09-03T09:30:32.344Z,100280.78
2022-09-03T09:33:00.780Z,100273.28
2022-09-03T09:35:27.982Z,100275.69
2022-09-03T09:37:57.640Z,100281.28
2022-09-03T09:40:33.331Z,100277.50
2022-09-03T09:43:12.057Z,100275.41
2022-09-03T09:45:50.382Z,100280.69
2022-09-03T09:48:31.804Z,100271.75
2022-09-03T09:51:06.250Z,100269.97
2022-09-03T09:53:33.252Z,100272.16
2022-09-03T09:56:00.577Z,100272.97
2022-09-03T09:58:31.196Z,100270.06
2022-09-03T10:01:03.313Z,100265.91
2022-09-03T10:03:35.781Z,100270.56
2022-09-03T10:06:28.555Z,100263.22
2022-09-03T10:09:30.885Z,100262.28
2022-09-03T10:12:23.564Z,100250.69
2022-09-03T10:14:57.579Z,100255.66
2022-09-03T10:17:36.989Z,100247.06
2022-09-03T10:20:31.017Z,100252.25
2022-09-03T10:23:03.851Z,100247.75
2022-09-03T10:26:07.765Z,100245.25
2022-09-03T10:28:42.795Z,100243.69
2022-09-03T10:31:33.417Z,100247.72
2022-09-03T10:34:24.698Z,100232.28
2022-09-03T10:36:57.527Z,100231.22
2022-09-03T10:39:51.624Z,100239.91
2022-09-03T10:42:22.057Z,100229.69
2022-09-03T10:44:51.731Z,100216.59
2022-09-03T10:47:28.295Z,100221.59
2022-09-03T10:50:01.863Z,100224.59
2022-09-03T10:52:38.182Z,100216.97
2022-09-03T10:55:22.541Z,100212.31
2022-09-03T10:58:13.083Z,100218.47
2022-09-03T11:00:47.811Z,100218.81
2022-09-03T11:03:39.190Z,100219.25
2022-09-03T11:06:12.885Z,100218.97
2022-09-03T11:08:49.884Z,100222.09
2022-09-03T11:11:22.191Z,100223.59
2022-09-03T11:14:02.666Z,100219.97
2022-09-03T11:16:33.966Z,100217.13
2022-09-03T11:19:06.519Z,100227.25
2022-09-03T11:21:36.735Z,100223.94
2022-09-03T11:24:10.384Z,100220.94
2022-09-03T11:26:39.661Z,100214.28
2022-09-03T11:29:20.689Z,100205.81
2022-09-03T11:32:07.949Z,100215.44
2022-09-03T11:34:55.532Z,100218.13
2022-09-03T11:37:28.135Z,100227.63
2022-09-03T11:40:04.089Z,100221.28
2022-09-03T11:42:41.177Z,100218.31
2022-09-03T11:45:19.780Z,100215.13
2022-09-03T11:47:47.266Z,100215.63
2022-09-03T11:50:21.728Z,100214.94
2022-09-03T11:52:51.975Z,100206.31
2022-09-03T11:55:38.429Z,100210.47
2022-09-03T11:58:38.183Z,100202.13
2022-09-03T12:01:10.689Z,100201.97
2022-09-03T12:03:52.793Z,100203.78
2022-09-03T12:06:57.410Z,100195.31
2022-09-03T12:09:51.751Z,100180.28
2022-09-03T12:12:39.274Z,100181.97
2022-09-03T12:15:29.690Z,100174.47
2022-09-03T12:18:20.005Z,100177.66
2022-09-03T12:20:50.973Z,100170.69
2022-09-03T12:23:31.834Z,100171.44
2022-09-03T12:26:06.236Z,100172.88
2022-09-03T12:28:38.017Z,100166.41
2022-09-03T12:31:23.812Z,100165.94
2022-09-03T12:33:54.191Z,100172.00
2022-09-03T12:36:23.066Z,100166.88
2022-09-03T12:39:10.938Z,100156.81
2022-09-03T12:41:38.023Z,100159.94
2022-09-03T12:44:05.430Z,100163.06
2022-09-03T12:46:34.344Z,100166.63
2022-09-03T12:52:12.896Z,100158.59
2022-09-03T12:54:50.475Z,100170.28
2022-09-03T12:57:22.553Z,100154.75
2022-09-03T12:59:54.770Z,100158.59
2022-09-03T13:02:31.020Z,100159.69
2022-09-03T13:04:58.080Z,100152.88
2022-09-03T13:07:27.433Z,100149.63
2022-09-03T13:10:04.382Z,100149.44
2022-09-03T13:12:35.524Z,100144.16
2022-09-03T13:15:06.768Z,100140.34
2022-09-03T13:17:47.692Z,100143.72
2022-09-03T13:20:27.514Z,100155.19
2022-09-03T13:23:30.915Z,100161.25
2022-09-03T13:26:21.773Z,100156.22
2022-09-03T13:29:09.864Z,100157.19
2022-09-03T13:31:43.910Z,100164.59
2022-09-03T13:34:32.240Z,100155.56
2022-09-03T13:37:06.152Z,100143.59
2022-09-03T13:39:44.602Z,100153.94
2022-09-03T13:42:19.018Z,100152.69
2022-09-03T13:44:51.102Z,100145.53
2022-09-03T13:47:28.705Z,100154.34
2022-09-03T13:50:24.245Z,100143.00
2022-09-03T13:52:58.697Z,100143.94
2022-09-03T13:55:40.626Z,100141.34
2022-09-03T13:58:30.964Z,100129.13
2022-09-03T14:00:58.525Z,100129.09
2022-09-03T14:03:32.482Z,100137.78
2022-09-03T14:06:11.343Z,100126.22
2022-09-03T14:09:04.787Z,100117.97
2022-09-03T14:11:56.240Z,100131.25
2022-09-03T14:14:38.107Z,100123.03
2022-09-03T14:17:23.810Z,100122.84
2022-09-03T14:20:00.350Z,100124.84
2022-09-03T14:22:45.935Z,100127.84
2022-09-03T14:25:17.183Z,100128.16
2022-09-03T14:27:44.203Z,100124.91
2022-09-03T14:30:17.009Z,100135.72
2022-09-03T14:32:56.032Z,100139.44
2022-09-03T14:35:39.635Z,100136.72
2022-09-03T14:38:30.786Z,100144.13
2022-09-03T14:41:16.099Z,100134.44
2022-09-03T14:44:31.269Z,100138.66
2022-09-03T14:47:37.808Z,100139.97
2022-09-03T14:50:28.465Z,100142.19
2022-09-03T14:53:27.966Z,100137.75
2022-09-03T14:56:11.022Z,100130.41
2022-09-03T14:59:21.901Z,100125.09
2022-09-03T15:02:15.275Z,100129.88
2022-09-03T15:05:11.010Z,100127.72
2022-09-03T15:07:41.482Z,100131.34
2022-09-03T15:10:11.640Z,100132.94
2022-09-03T15:12:45.035Z,100126.91
2022-09-03T15:15:28.323Z,100135.53
2022-09-03T15:18:15.587Z,100130.56
2022-09-03T15:20:54.630Z,100129.03
2022-09-03T15:23:49.540Z,100128.69
2022-09-03T15:26:38.214Z,100122.81
2022-09-03T15:29:51.666Z,100120.56
2022-09-03T15:32:24.744Z,100121.44
2022-09-03T15:35:07.062Z,100116.16
2022-09-03T15:37:49.161Z,100115.47
2022-09-03T15:40:27.842Z,100123.41
2022-09-03T15:43:21.980Z,100134.81
2022-09-03T15:45:48.768Z,100119.63
2022-09-03T15:48:45.496Z,100116.72
2022-09-03T15:51:27.218Z,100124.25
2022-09-03T15:54:16.426Z,100126.88
2022-09-03T15:57:10.556Z,100124.25
2022-09-03T15:59:55.713Z,100126.34
2022-09-03T16:02:47.803Z,100118.63
2022-09-03T16:05:29.192Z,100115.97
2022-09-03T16:08:28.301Z,100116.94
2022-09-03T16:11:16.969Z,100126.97
2022-09-03T16:14:04.890Z,100132.13
2022-09-03T16:16:52.515Z,100129.81
2022-09-03T16:19:27.199Z,100121.78
2022-09-03T16:22:41.725Z,100133.44
2022-09-03T16:25:23.305Z,100136.47
2022-09-03T16:28:09.028Z,100134.22
2022-09-03T16:30:40.062Z,100138.78
2022-09-03T16:33:44.670Z,100128.09
2022-09-03T16:36:11.401Z,100124.69
2022-09-03T16:39:02.400Z,100117.84
2022-09-03T16:41:56.836Z,100123.66
2022-09-03T16:44:39.002Z,100130.78
2022-09-03T16:47:24.496Z,100131.09
2022-09-03T16:50:23.575Z,100130.28
2022-09-03T16:53:15.845Z,100136.94
2022-09-03T16:55:51.901Z,100126.69
2022-09-03T16:58:34.866Z,100133.63
2022-09-03T17:01:27.917Z,100128.91
2022-09-03T17:04:23.629Z,100137.69
2022-09-03T17:07:00.408Z,100134.31
2022-09-03T17:10:02.563Z,100133.63
2022-09-03T17:12:43.753Z,100135.44
2022-09-03T17:15:39.152Z,100133.22
2022-09-03T17:18:30.330Z,100136.03
2022-09-03T17:21:34.741Z,100141.47
2022-09-03T17:24:04.417Z,100145.34
2022-09-03T17:26:55.559Z,100142.59
2022-09-03T17:30:00.033Z,100135.06
2022-09-03T17:32:39.998Z,100139.50
2022-09-03T17:35:17.718Z,100142.72
2022-09-03T17:38:06.113Z,100150.88
2022-09-03T17:41:05.147Z,100129.75
2022-09-03T17:44:00.443Z,100128.59
2022-09-03T17:46:42.499Z,100127.63
2022-09-03T17:49:22.357Z,100129.16
2022-09-03T17:52:07.300Z,100116.38
2022-09-03T17:54:49.760Z,100123.88
2022-09-03T17:57:48.467Z,100134.69
2022-09-03T18:00:25.674Z,100145.38
2022-09-03T18:03:02.057Z,100142.44
2022-09-03T18:05:41.893Z,100140.09
2022-09-03T18:08:24.937Z,100137.72
2022-09-03T18:11:09.713Z,100139.94
2022-09-03T18:13:58.201Z,100117.72
2022-09-03T18:16:31.966Z,100128.28
2022-09-03T18:20:02.211Z,100131.31
2022-09-03T18:22:55.391Z,100147.56
2022-09-03T18:25:44.990Z,100150.41
2022-09-03T18:28:37.131Z,100147.31
2022-09-03T18:31:22.722Z,100163.16
2022-09-03T18:34:08.022Z,100143.75
2022-09-03T18:36:53.666Z,100148.41
2022-09-03T18:39:47.519Z,100158.84
2022-09-03T18:42:59.401Z,100158.28
2022-09-03T18:49:33.315Z,100149.34
2022-09-03T18:52:24.013Z,100171.03
2022-09-03T18:55:56.570Z,100179.44
2022-09-03T18:59:03.749Z,100187.13
2022-09-03T19:02:00.604Z,100173.75
2022-09-03T19:05:09.397Z,100179.66
2022-09-03T19:08:04.931Z,100188.03
2022-09-03T19:11:04.645Z,100181.97
2022-09-03T19:13:55.373Z,100203.16
2022-09-03T19:16:45.591Z,100207.19
2022-09-03T19:19:55.862Z,100211.25
2022-09-03T19:22:59.029Z,100204.78
2022-09-03T19:25:46.698Z,100206.94
2022-09-03T19:28:33.577Z,100217.00
2022-09-03T19:31:58.087Z,100228.97
2022-09-03T19:35:15.885Z,100234.81
2022-09-03T19:38:34.672Z,100253.09
2022-09-03T19:41:41.972Z,100260.84
2022-09-03T19:45:18.011Z,100262.38
2022-09-03T19:48:03.367Z,100267.50
2022-09-03T19:50:55.652Z,100271.66
2022-09-03T19:53:42.223Z,100273.03
2022-09-03T19:56:39.984Z,100267.16
2022-09-03T19:59:30.947Z,100266.66
2022-09-03T20:02:18.111Z,100274.53
2022-09-03T20:05:25.622Z,100276.81
2022-09-03T20:08:14.919Z,100282.72
2022-09-03T20:10:44.247Z,100282.56
2022-09-03T20:13:21.358Z,100281.44
2022-09-03T20:16:00.504Z,100273.84
2022-09-03T20:19:05.173Z,100269.66
2022-09-03T20:21:58.263Z,100264.03
2022-09-03T20:24:45.885Z,100268.53
2022-09-03T20:27:15.603Z,100268.25
2022-09-03T20:30:09.339Z,100255.97
2022-09-03T20:33:05.538Z,100277.63
2022-09-03T20:35:33.815Z,100283.91
2022-09-03T20:38:48.160Z,100275.09
2022-09-03T20:41:30.228Z,100293.59
2022-09-03T20:44:08.474Z,100299.03
2022-09-03T20:46:53.686Z,100299.34
2022-09-03T20:50:04.435Z,100294.22
2022-09-03T20:53:05.187Z,100295.16
2022-09-03T20:55:45.330Z,100296.84
2022-09-03T20:58:32.080Z,100308.28
2022-09-03T21:00:59.691Z,100294.44
2022-09-03T21:04:06.963Z,100291.72
2022-09-03T21:06:42.560Z,100303.06
2022-09-03T21:09:12.047Z,100308.09
2022-09-03T21:11:48.139Z,100310.47
2022-09-03T21:14:34.791Z,100286.25
2022-09-03T21:17:05.085Z,100321.84
2022-09-03T21:19:49.342Z,100312.91
2022-09-03T21:22:54.133Z,100305.13
2022-09-03T21:25:28.350Z,100311.34
2022-09-03T21:28:01.425Z,100307.13
2022-09-03T21:30:30.396Z,100300.09
2022-09-03T21:33:04.790Z,100287.91
2022-09-03T21:35:54.725Z,100283.50
2022-09-03T21:38:25.145Z,100285.28
2022-09-03T21:41:12.722Z,100282.78
2022-09-03T21:44:05.496Z,100278.69
2022-09-03T21:47:02.195Z,100278.91
2022-09-03T21:49:39.180Z,100281.84
2022-09-03T21:52:17.469Z,100294.44
2022-09-03T21:54:44.196Z,100296.44
2022-09-03T21:57:22.233Z,100296.75
2022-09-03T22:00:07.165Z,100288.56
2022-09-03T22:02:34.053Z,100278.06
2022-09-03T22:05:03.204Z,100281.66
2022-09-03T22:07:39.029Z,100290.78
2022-09-03T22:10:39.414Z,100280.19
2022-09-03T22:13:21.214Z,100279.31
2022-09-03T22:15:50.854Z,100278.06
2022-09-03T22:18:29.253Z,100290.06
2022-09-03T22:21:12.765Z,100283.13
2022-09-03T22:24:20.023Z,100263.81
2022-09-03T22:27:15.704Z,100274.16
2022-09-03T22:29:57.767Z,100263.56
2022-09-03T22:32:36.358Z,100264.44
2022-09-03T22:35:20.185Z,100258.44
2022-09-03T22:38:05.573Z,100267.69
2022-09-03T22:40:38.138Z,100271.75
2022-09-03T22:43:21.062Z,100261.03
2022-09-03T22:46:02.885Z,100268.59
2022-09-03T22:48:51.948Z,100269.00
2022-09-03T22:51:21.742Z,100284.53
2022-09-03T22:54:07.119Z,100287.78
2022-09-03T22:56:40.802Z,100291.03
2022-09-03T22:59:33.320Z,100297.00
2022-09-03T23:02:08.747Z,100297.75
2022-09-03T23:05:24.943Z,100279.13
2022-09-03T23:08:03.331Z,100274.53
2022-09-03T23:10:34.174Z,100277.97
2022-09-03T23:13:09.576Z,100267.25
2022-09-03T23:15:39.794Z,100259.28
2022-09-03T23:18:09.568Z,100247.91
2022-09-03T23:20:40.971Z,100244.34
2022-09-03T23:23:28.096Z,100240.91
2022-09-03T23:26:13.711Z,100257.81
2022-09-03T23:28:54.602Z,100248.13
2022-09-03T23:31:24.531Z,100242.38
2022-09-03T23:33:55.458Z,100245.00
2022-09-03T23:37:15.953Z,100253.13
2022-09-03T23:40:31.528Z,100239.47
2022-09-03T23:43:31.920Z,100228.47
2022-09-03T23:46:20.569Z,100226.97
2022-09-03T23:49:12.014Z,100228.06
2022-09-03T23:52:12.506Z,100223.13
2022-09-03T23:54:47.298Z,100223.56
2022-09-03T23:57:19.851Z,100233.31
